createdAt,value
2023-03-26T00:02:05.510Z,10.22
2023-03-26T00:04:34.311Z,10.07
2023-03-26T00:07:02.871Z,10.25
2023-03-26T00:09:30.977Z,10.22
2023-03-26T00:11:58.738Z,10.30
2023-03-26T00:14:29.100Z,10.22
2023-03-26T00:16:57.088Z,10.10
2023-03-26T00:19:25.286Z,10.16
2023-03-26T00:21:53.231Z,10.11
2023-03-26T00:24:21.147Z,10.22
2023-03-26T00:26:53.181Z,10.36
2023-03-26T00:29:22.852Z,10.32
2023-03-26T00:31:52.166Z,10.15
2023-03-26T00:34:20.673Z,10.19
2023-03-26T00:36:54.143Z,10.16
2023-03-26T00:39:24.139Z,10.26
2023-03-26T00:41:54.263Z,10.19
2023-03-26T00:44:22.981Z,10.19
2023-03-26T00:46:52.590Z,10.39
2023-03-26T00:49:20.398Z,10.29
2023-03-26T00:51:48.317Z,10.25
2023-03-26T00:54:16.455Z,10.28
2023-03-26T00:56:44.609Z,10.18
2023-03-26T00:59:12.423Z,10.23
2023-03-26T01:01:40.688Z,10.17
2023-03-26T01:04:31.277Z,10.17
2023-03-26T01:07:04.875Z,10.19
2023-03-26T01:09:37.562Z,10.30
2023-03-26T01:12:11.248Z,10.24
2023-03-26T01:14:39.863Z,10.28
2023-03-26T01:17:09.227Z,10.32
2023-03-26T01:19:48.346Z,10.15
2023-03-26T01:22:20.129Z,10.24
2023-03-26T01:24:54.035Z,10.18
2023-03-26T01:27:35.585Z,10.34
2023-03-26T01:30:17.319Z,10.11
2023-03-26T01:32:58.941Z,10.20
2023-03-26T01:35:45.882Z,10.15
2023-03-26T01:38:26.168Z,10.32
2023-03-26T01:41:06.982Z,10.36
2023-03-26T01:43:41.123Z,10.45
2023-03-26T01:46:13.387Z,10.37
2023-03-26T01:48:46.067Z,10.29
2023-03-26T01:51:27.774Z,10.23
2023-03-26T01:53:58.313Z,10.29
2023-03-26T01:56:41.742Z,10.36
2023-03-26T01:59:28.948Z,10.32
2023-03-26T02:02:07.447Z,10.44
2023-03-26T02:04:46.313Z,10.36
2023-03-26T02:07:28.672Z,10.34
2023-03-26T02:10:05.447Z,10.37
2023-03-26T02:12:36.420Z,10.38
2023-03-26T02:15:06.244Z,10.51
2023-03-26T02:17:34.155Z,10.52
2023-03-26T02:20:05.934Z,10.48
2023-03-26T02:22:40.638Z,10.47
2023-03-26T02:25:13.318Z,10.51
2023-03-26T02:27:44.061Z,10.57
2023-03-26T02:30:17.563Z,10.44
2023-03-26T02:32:52.064Z,10.24
2023-03-26T02:35:22.364Z,10.33
2023-03-26T02:37:54.636Z,10.46
2023-03-26T02:40:23.654Z,10.48
2023-03-26T02:42:53.925Z,10.29
2023-03-26T02:45:23.024Z,10.32
2023-03-26T02:48:15.091Z,10.38
2023-03-26T02:50:44.695Z,10.48
2023-03-26T02:53:41.177Z,10.57
2023-03-26T02:56:42.433Z,10.64
2023-03-26T02:59:50.376Z,10.83
2023-03-26T03:02:38.529Z,10.81
2023-03-26T03:05:26.641Z,10.79
2023-03-26T03:08:24.525Z,10.84
2023-03-26T03:11:09.621Z,10.82
2023-03-26T03:13:48.345Z,10.86
2023-03-26T03:16:24.468Z,10.79
2023-03-26T03:18:58.031Z,10.73
2023-03-26T03:21:30.816Z,10.84
2023-03-26T03:24:00.080Z,10.91
2023-03-26T03:26:29.917Z,10.97
2023-03-26T03:29:00.756Z,10.97
2023-03-26T03:31:30.043Z,10.89
2023-03-26T03:34:03.930Z,10.94
2023-03-26T03:36:38.498Z,10.99
2023-03-26T03:39:25.532Z,11.05
2023-03-26T03:41:53.658Z,11.08
2023-03-26T03:44:21.698Z,11.03
2023-03-26T03:46:54.181Z,10.98
2023-03-26T03:49:22.862Z,10.90
2023-03-26T03:51:50.779Z,10.88
2023-03-26T03:54:34.221Z,10.89
2023-03-26T03:57:24.870Z,10.91
2023-03-26T04:00:03.201Z,10.94
2023-03-26T04:02:45.993Z,11.01
2023-03-26T04:05:15.353Z,11.07
2023-03-26T04:07:47.796Z,11.10
2023-03-26T04:10:27.596Z,11.15
2023-03-26T04:13:15.975Z,11.15
2023-03-26T04:16:09.901Z,11.11
2023-03-26T04:18:40.536Z,11.16
2023-03-26T04:21:15.706Z,11.21
2023-03-26T04:23:43.783Z,11.15
2023-03-26T04:26:35.520Z,11.06
2023-03-26T04:29:18.193Z,11.06
2023-03-26T04:31:47.098Z,10.98
2023-03-26T04:34:24.426Z,10.92
2023-03-26T04:37:05.821Z,10.90
2023-03-26T04:39:40.913Z,10.82
2023-03-26T04:42:28.972Z,10.74
2023-03-26T04:45:11.254Z,10.77
2023-03-26T04:47:41.926Z,10.86
2023-03-26T04:50:12.267Z,10.75
2023-03-26T04:52:45.157Z,10.86
2023-03-26T04:55:45.181Z,10.80
2023-03-26T04:58:20.717Z,10.82
2023-03-26T05:01:01.164Z,10.84
2023-03-26T05:03:41.988Z,10.93
2023-03-26T05:06:15.402Z,10.91
2023-03-26T05:08:43.361Z,10.88
2023-03-26T05:11:19.697Z,10.92
2023-03-26T05:13:47.854Z,10.90
2023-03-26T05:16:15.699Z,10.73
2023-03-26T05:18:51.975Z,10.73
2023-03-26T05:21:22.398Z,10.63
2023-03-26T05:23:50.883Z,10.56
2023-03-26T05:26:20.604Z,10.44
2023-03-26T05:28:50.560Z,10.25
2023-03-26T05:31:27.078Z,10.24
2023-03-26T05:33:58.136Z,10.14
2023-03-26T05:36:30.702Z,9.92
2023-03-26T05:39:14.567Z,9.93
2023-03-26T05:42:07.734Z,9.92
2023-03-26T05:44:56.070Z,10.00
2023-03-26T05:47:28.497Z,9.99
2023-03-26T05:49:57.984Z,9.88
2023-03-26T05:52:28.335Z,9.84
2023-03-26T05:55:14.896Z,9.82
2023-03-26T05:58:01.169Z,9.82
2023-03-26T06:00:58.489Z,9.80
2023-03-26T06:03:35.055Z,9.88
2023-03-26T06:06:23.903Z,9.98
2023-03-26T06:09:01.646Z,10.11
2023-03-26T06:11:35.827Z,10.26
2023-03-26T06:14:05.789Z,10.32
2023-03-26T06:16:35.332Z,10.43
2023-03-26T06:19:18.808Z,10.53
2023-03-26T06:22:03.963Z,10.54
2023-03-26T06:24:40.953Z,10.62
2023-03-26T06:27:40.812Z,10.72
2023-03-26T06:30:38.449Z,10.88
2023-03-26T06:33:13.993Z,10.97
2023-03-26T06:35:49.940Z,10.90
2023-03-26T06:38:18.536Z,10.81
2023-03-26T06:40:47.704Z,10.86
2023-03-26T06:43:27.798Z,10.97
2023-03-26T06:46:06.906Z,11.02
2023-03-26T06:48:53.598Z,11.09
2023-03-26T06:51:41.091Z,11.15
2023-03-26T06:54:29.520Z,11.20
2023-03-26T06:57:12.626Z,11.46
2023-03-26T06:59:59.074Z,11.59
2023-03-26T07:02:46.007Z,11.75
2023-03-26T07:05:32.578Z,11.71
2023-03-26T07:08:20.719Z,11.75
2023-03-26T07:11:14.397Z,11.89
2023-03-26T07:14:01.492Z,11.81
2023-03-26T07:16:47.804Z,11.95
2023-03-26T07:19:46.510Z,11.99
2023-03-26T07:22:21.224Z,12.03
2023-03-26T07:25:09.698Z,12.11
2023-03-26T07:28:11.395Z,12.10
2023-03-26T07:31:06.723Z,12.13
2023-03-26T07:34:05.575Z,12.12
2023-03-26T07:36:57.386Z,12.15
2023-03-26T07:39:57.898Z,12.19
2023-03-26T07:43:00.766Z,12.15
2023-03-26T07:46:12.690Z,12.23
2023-03-26T07:48:51.744Z,12.12
2023-03-26T07:51:35.728Z,12.30
2023-03-26T07:54:23.136Z,12.24
2023-03-26T07:57:36.481Z,12.32
2023-03-26T08:00:29.203Z,12.25
2023-03-26T08:03:27.706Z,12.38
2023-03-26T08:06:37.227Z,12.66
2023-03-26T08:09:26.322Z,12.51
2023-03-26T08:12:27.564Z,12.08
2023-03-26T08:15:08.738Z,12.23
2023-03-26T08:17:45.019Z,12.11
2023-03-26T08:20:32.030Z,12.03
2023-03-26T08:23:13.750Z,12.12
2023-03-26T08:25:59.274Z,12.27
2023-03-26T08:28:50.609Z,12.54
2023-03-26T08:31:33.475Z,12.35
2023-03-26T08:34:01.906Z,12.28
2023-03-26T08:36:31.732Z,12.36
2023-03-26T08:38:59.563Z,12.19
2023-03-26T08:42:17.544Z,12.43
2023-03-26T08:45:51.235Z,12.38
2023-03-26T08:49:10.236Z,12.43
2023-03-26T08:52:35.642Z,12.61
2023-03-26T08:55:37.517Z,12.73
2023-03-26T08:59:03.109Z,12.42
2023-03-26T09:02:02.958Z,12.39
2023-03-26T09:05:34.435Z,12.61
2023-03-26T09:08:55.437Z,12.89
2023-03-26T09:12:00.362Z,13.04
2023-03-26T09:15:16.070Z,13.19
2023-03-26T09:18:37.460Z,13.12
2023-03-26T09:22:08.975Z,13.16
2023-03-26T09:25:04.999Z,13.19
2023-03-26T09:27:44.821Z,13.11
2023-03-26T09:31:00.417Z,12.98
2023-03-26T09:34:00.260Z,12.82
2023-03-26T09:36:53.125Z,13.00
2023-03-26T09:39:38.903Z,12.92
2023-03-26T09:42:24.302Z,12.74
2023-03-26T09:45:45.419Z,12.87
2023-03-26T09:48:48.242Z,12.89
2023-03-26T09:51:55.985Z,12.70
2023-03-26T09:54:54.919Z,12.46
2023-03-26T09:58:00.006Z,12.56
2023-03-26T10:00:41.726Z,12.71
2023-03-26T10:03:33.789Z,12.73
2023-03-26T10:06:30.232Z,12.42
2023-03-26T10:09:13.658Z,12.06
2023-03-26T10:12:12.724Z,11.93
2023-03-26T10:15:00.810Z,11.90
2023-03-26T10:17:46.435Z,11.76
2023-03-26T10:20:51.706Z,11.91
2023-03-26T10:23:48.799Z,12.04
2023-03-26T10:27:10.084Z,12.14
2023-03-26T10:30:04.369Z,12.26
2023-03-26T10:32:46.788Z,12.22
2023-03-26T10:35:38.607Z,12.19
2023-03-26T10:38:18.859Z,12.02
2023-03-26T10:41:04.401Z,11.71
2023-03-26T10:44:08.719Z,11.56
2023-03-26T10:47:00.101Z,11.61
2023-03-26T10:49:44.059Z,11.75
2023-03-26T10:52:20.953Z,11.88
2023-03-26T10:54:56.557Z,11.89
2023-03-26T10:57:40.234Z,11.90
2023-03-26T11:00:24.930Z,11.84
2023-03-26T11:03:27.477Z,11.79
2023-03-26T11:06:09.192Z,11.72
2023-03-26T11:08:46.998Z,11.67
2023-03-26T11:11:25.530Z,11.74
2023-03-26T11:14:04.996Z,11.73
2023-03-26T11:16:54.637Z,11.63
2023-03-26T11:19:35.853Z,11.63
2023-03-26T11:22:20.562Z,11.71
2023-03-26T11:25:09.532Z,11.69
2023-03-26T11:27:56.149Z,11.54
2023-03-26T11:30:40.171Z,11.62
2023-03-26T11:33:16.705Z,11.56
2023-03-26T11:35:51.381Z,11.45
2023-03-26T11:38:26.483Z,11.36
2023-03-26T11:40:57.934Z,11.32
2023-03-26T11:43:41.165Z,11.35
2023-03-26T11:46:14.479Z,11.22
2023-03-26T11:48:46.910Z,11.31
2023-03-26T11:51:25.505Z,11.29
2023-03-26T11:53:54.470Z,11.20
2023-03-26T11:56:31.080Z,11.17
2023-03-26T11:59:05.127Z,11.28
2023-03-26T12:01:52.721Z,11.29
2023-03-26T12:04:30.730Z,11.39
2023-03-26T12:07:15.922Z,11.28
2023-03-26T12:09:53.196Z,11.30
2023-03-26T12:12:25.959Z,11.12
2023-03-26T12:14:54.903Z,11.09
2023-03-26T12:17:35.061Z,10.88
2023-03-26T12:20:32.201Z,10.94
2023-03-26T12:23:04.972Z,10.93
2023-03-26T12:25:38.579Z,11.04
2023-03-26T12:28:19.346Z,11.00
2023-03-26T12:31:00.838Z,11.02
2023-03-26T12:33:34.166Z,10.93
2023-03-26T12:36:21.368Z,10.98
2023-03-26T12:39:16.293Z,11.01
2023-03-26T12:43:51.523Z,10.97
2023-03-26T12:44:54.900Z,11.06
2023-03-26T12:48:00.391Z,11.15
2023-03-26T12:50:16.304Z,11.22
2023-03-26T12:53:19.464Z,11.34
2023-03-26T12:56:01.160Z,11.24
2023-03-26T12:59:00.093Z,11.42
2023-03-26T13:01:45.439Z,11.40
2023-03-26T13:05:04.984Z,11.18
2023-03-26T13:07:57.474Z,11.34
2023-03-26T13:10:48.389Z,11.34
2023-03-26T13:13:53.249Z,11.31
2023-03-26T13:16:35.137Z,11.08
2023-03-26T13:19:10.684Z,11.06
2023-03-26T13:21:57.126Z,10.91
2023-03-26T13:24:44.782Z,10.75
2023-03-26T13:27:36.681Z,10.78
2023-03-26T13:30:26.182Z,10.86
2023-03-26T13:33:14.890Z,10.97
2023-03-26T13:36:06.550Z,10.98
2023-03-26T13:39:00.980Z,11.05
2023-03-26T13:41:47.201Z,11.00
2023-03-26T13:44:29.787Z,11.09
2023-03-26T13:47:04.938Z,10.95
2023-03-26T13:49:41.396Z,10.93
2023-03-26T13:52:17.409Z,10.83
2023-03-26T13:54:52.057Z,10.73
2023-03-26T13:57:26.290Z,10.62
2023-03-26T14:00:00.842Z,10.64
2023-03-26T14:02:38.889Z,10.44
2023-03-26T14:05:15.379Z,10.53
2023-03-26T14:07:48.827Z,10.55
2023-03-26T14:10:23.567Z,10.54
2023-03-26T14:13:00.698Z,10.42
2023-03-26T14:15:36.369Z,10.38
2023-03-26T14:18:22.491Z,10.38
2023-03-26T14:21:25.197Z,10.39
2023-03-26T14:24:20.454Z,10.21
2023-03-26T14:27:21.849Z,10.20
2023-03-26T14:30:22.600Z,10.12
2023-03-26T14:33:12.693Z,10.17
2023-03-26T14:35:54.696Z,10.04
2023-03-26T14:39:05.339Z,10.04
2023-03-26T14:41:48.687Z,9.89
2023-03-26T14:44:54.934Z,9.91
2023-03-26T14:47:25.026Z,9.91
2023-03-26T14:50:35.895Z,9.85
2023-03-26T14:53:15.820Z,9.83
2023-03-26T14:56:15.660Z,9.86
2023-03-26T14:59:33.840Z,9.81
2023-03-26T15:06:23.956Z,9.79
2023-03-26T15:09:49.210Z,9.77
2023-03-26T15:12:36.154Z,9.84
2023-03-26T15:15:44.282Z,9.90
2023-03-26T15:18:57.613Z,9.91
2023-03-26T15:22:14.486Z,9.95
2023-03-26T15:25:34.823Z,9.97
2023-03-26T15:29:00.927Z,10.08
2023-03-26T15:32:11.451Z,10.09
2023-03-26T15:35:31.973Z,10.23
2023-03-26T15:38:47.436Z,10.17
2023-03-26T15:41:26.170Z,10.12
2023-03-26T15:44:50.894Z,10.06
2023-03-26T15:47:53.998Z,9.85
2023-03-26T15:50:38.006Z,9.85
2023-03-26T15:53:23.437Z,9.87
2023-03-26T15:59:15.571Z,10.02
2023-03-26T16:02:02.335Z,10.04
2023-03-26T16:04:50.787Z,10.13
2023-03-26T16:07:47.097Z,10.00
2023-03-26T16:10:30.884Z,9.76
2023-03-26T16:13:32.548Z,9.70
2023-03-26T16:16:24.794Z,9.73
2023-03-26T16:19:19.553Z,9.69
2023-03-26T16:21:57.581Z,9.57
2023-03-26T16:24:33.035Z,9.58
2023-03-26T16:27:32.071Z,9.54
2023-03-26T16:30:30.560Z,9.57
2023-03-26T16:33:14.020Z,9.47
2023-03-26T16:36:18.373Z,9.36
2023-03-26T16:38:54.136Z,9.53
2023-03-26T16:41:26.119Z,9.58
2023-03-26T16:44:17.331Z,9.53
2023-03-26T16:46:58.640Z,9.39
2023-03-26T16:49:45.861Z,9.45
2023-03-26T16:52:34.222Z,9.45
2023-03-26T16:55:18.339Z,9.53
2023-03-26T16:57:56.230Z,9.56
2023-03-26T17:00:42.934Z,9.57
2023-03-26T17:03:35.450Z,9.46
2023-03-26T17:06:23.958Z,9.50
2023-03-26T17:09:04.563Z,9.46
2023-03-26T17:11:52.474Z,9.56
2023-03-26T17:14:36.252Z,9.54
2023-03-26T17:17:26.657Z,9.52
2023-03-26T17:20:08.894Z,9.67
2023-03-26T17:22:45.692Z,9.32
2023-03-26T17:25:57.451Z,9.34
2023-03-26T17:28:50.541Z,9.44
2023-03-26T17:31:41.410Z,9.23
2023-03-26T17:34:47.284Z,9.22
2023-03-26T17:37:35.234Z,9.13
2023-03-26T17:40:48.396Z,9.12
2023-03-26T17:43:40.512Z,9.14
2023-03-26T17:46:27.132Z,9.24
2023-03-26T17:49:03.035Z,9.12
2023-03-26T17:51:44.595Z,9.10
2023-03-26T17:54:22.730Z,9.07
2023-03-26T17:56:54.493Z,9.15
2023-03-26T17:59:27.403Z,9.12
2023-03-26T18:02:00.828Z,9.10
2023-03-26T18:04:36.646Z,9.14
2023-03-26T18:07:36.401Z,9.10
2023-03-26T18:10:33.042Z,9.12
2023-03-26T18:13:21.435Z,8.89
2023-03-26T18:16:09.445Z,8.76
2023-03-26T18:18:49.650Z,8.73
2023-03-26T18:21:32.581Z,8.66
2023-03-26T18:24:04.508Z,8.61
2023-03-26T18:26:37.575Z,8.60
2023-03-26T18:29:19.368Z,8.59
2023-03-26T18:31:53.233Z,8.52
2023-03-26T18:34:22.367Z,8.56
2023-03-26T18:37:14.679Z,8.54
2023-03-26T18:39:58.943Z,8.51
2023-03-26T18:42:30.355Z,8.48
2023-03-26T18:45:03.982Z,8.45
2023-03-26T18:47:33.358Z,8.39
2023-03-26T18:50:01.293Z,8.16
2023-03-26T18:52:32.143Z,8.02
2023-03-26T18:55:03.834Z,7.95
2023-03-26T18:57:31.928Z,7.84
2023-03-26T19:00:19.970Z,7.82
2023-03-26T19:02:56.156Z,7.73
2023-03-26T19:05:28.378Z,7.72
2023-03-26T19:07:56.703Z,7.50
2023-03-26T19:10:26.469Z,7.42
2023-03-26T19:12:57.337Z,7.35
2023-03-26T19:15:28.519Z,7.26
2023-03-26T19:18:06.752Z,7.21
2023-03-26T19:20:42.397Z,7.14
2023-03-26T19:23:15.616Z,7.13
2023-03-26T19:25:48.339Z,7.04
2023-03-26T19:28:22.441Z,6.91
2023-03-26T19:30:56.272Z,6.86
2023-03-26T19:33:33.033Z,6.82
2023-03-26T19:36:05.904Z,6.64
2023-03-26T19:38:46.629Z,6.68
2023-03-26T19:41:22.934Z,6.56
2023-03-26T19:43:52.961Z,6.47
2023-03-26T19:46:26.091Z,6.39
2023-03-26T19:48:56.433Z,6.30
2023-03-26T19:51:32.474Z,6.31
2023-03-26T19:54:06.030Z,6.23
2023-03-26T19:56:35.228Z,6.28
2023-03-26T19:59:03.076Z,6.31
2023-03-26T20:01:32.044Z,6.24
2023-03-26T20:04:04.719Z,6.22
2023-03-26T20:06:43.898Z,6.13
2023-03-26T20:09:13.485Z,6.08
2023-03-26T20:11:42.984Z,6.07
2023-03-26T20:14:14.522Z,6.13
2023-03-26T20:16:45.305Z,6.12
2023-03-26T20:19:14.554Z,6.17
2023-03-26T20:21:44.308Z,6.17
2023-03-26T20:24:15.619Z,6.13
2023-03-26T20:26:45.804Z,6.13
2023-03-26T20:29:15.677Z,6.09
2023-03-26T20:31:44.233Z,6.14
2023-03-26T20:34:18.301Z,6.17
2023-03-26T20:36:48.088Z,6.08
2023-03-26T20:39:16.146Z,6.11
2023-03-26T20:41:48.426Z,6.00
2023-03-26T20:44:19.540Z,6.01
2023-03-26T20:46:49.810Z,5.92
2023-03-26T20:49:18.371Z,5.93
2023-03-26T20:51:46.563Z,5.90
2023-03-26T20:54:21.389Z,5.89
2023-03-26T20:56:52.317Z,5.88
2023-03-26T20:59:22.915Z,5.84
2023-03-26T21:01:51.287Z,5.69
2023-03-26T21:04:21.195Z,5.73
2023-03-26T21:06:49.422Z,5.61
2023-03-26T21:09:23.781Z,5.56
2023-03-26T21:12:01.592Z,5.52
2023-03-26T21:14:33.976Z,5.43
2023-03-26T21:17:02.596Z,5.49
2023-03-26T21:19:31.359Z,5.40
2023-03-26T21:22:12.235Z,5.27
2023-03-26T21:24:55.224Z,5.24
2023-03-26T21:27:36.276Z,5.24
2023-03-26T21:30:14.224Z,5.18
2023-03-26T21:32:44.802Z,5.20
2023-03-26T21:35:15.980Z,5.10
2023-03-26T21:37:48.590Z,5.05
2023-03-26T21:40:18.537Z,5.07
2023-03-26T21:42:52.090Z,5.01
2023-03-26T21:45:21.948Z,4.98
2023-03-26T21:47:50.696Z,5.05
2023-03-26T21:50:22.793Z,5.04
2023-03-26T21:52:52.237Z,4.95
2023-03-26T21:55:23.408Z,4.90
2023-03-26T21:58:20.712Z,4.98
2023-03-26T22:01:09.431Z,4.97
2023-03-26T22:03:55.029Z,5.03
2023-03-26T22:06:32.243Z,5.08
2023-03-26T22:09:00.783Z,5.02
2023-03-26T22:11:28.572Z,5.05
2023-03-26T22:13:57.779Z,4.97
2023-03-26T22:16:25.693Z,4.89
2023-03-26T22:18:54.039Z,4.81
2023-03-26T22:21:23.394Z,4.87
2023-03-26T22:23:55.009Z,4.92
2023-03-26T22:26:24.890Z,4.82
2023-03-26T22:28:53.078Z,4.79
2023-03-26T22:31:22.339Z,4.75
2023-03-26T22:33:50.270Z,4.76
2023-03-26T22:36:23.269Z,4.74
2023-03-26T22:38:53.673Z,4.69
2023-03-26T22:41:22.392Z,4.68
2023-03-26T22:43:52.092Z,4.59
2023-03-26T22:46:20.808Z,4.57
2023-03-26T22:48:51.035Z,4.54
2023-03-26T22:51:19.091Z,4.43
2023-03-26T22:53:47.165Z,4.37
2023-03-26T22:56:15.755Z,4.27
2023-03-26T22:58:43.605Z,4.35
2023-03-26T23:01:16.705Z,4.36
2023-03-26T23:03:45.444Z,4.34
2023-03-26T23:06:16.063Z,4.29
2023-03-26T23:08:44.031Z,4.25
2023-03-26T23:11:14.711Z,4.27
2023-03-26T23:13:44.123Z,4.27
2023-03-26T23:16:14.064Z,4.17
2023-03-26T23:18:42.522Z,4.11
2023-03-26T23:21:16.675Z,4.11
2023-03-26T23:23:45.154Z,4.05
2023-03-26T23:26:14.628Z,4.07
2023-03-26T23:28:43.183Z,4.05
2023-03-26T23:31:12.902Z,4.06
2023-03-26T23:33:45.903Z,4.04
2023-03-26T23:36:19.177Z,4.04
2023-03-26T23:38:48.786Z,4.01
2023-03-26T23:41:19.298Z,3.99
2023-03-26T23:43:55.526Z,3.97
2023-03-26T23:46:29.987Z,4.00
2023-03-26T23:48:59.985Z,3.99
2023-03-26T23:51:30.259Z,4.03
2023-03-26T23:53:59.931Z,3.97
2023-03-26T23:56:29.718Z,3.95
2023-03-26T23:58:59.043Z,3.97
